Time;durP1;ratioP1;P1;durP2;ratioP2;P2;SDS_P1;SDS_P2;PMS_P1;PMS_P2;Temp;Humidity;BMP_temperature;BMP_pressure;BME280_temperature;BME280_humidity;BME280_pressure;Samples;Min_cycle;Max_cycle;Signal;HPM_P1;HPM_P2
2021/05/10 00:02:12;;;;;;;2.93;2.70;;;14.80;99.90;;;;;;5138190;28;20243;-83
2021/05/10 00:04:38;;;;;;;2.70;2.50;;;14.60;99.90;;;;;;5142873;28;20239;-81
2021/05/10 00:07:03;;;;;;;4.27;2.30;;;14.50;99.90;;;;;;5125017;28;20485;-83
2021/05/10 00:09:29;;;;;;;2.73;2.53;;;14.60;99.90;;;;;;5141596;28;20166;-83
2021/05/10 00:11:55;;;;;;;2.57;2.33;;;14.70;99.90;;;;;;5125290;28;20626;-83
2021/05/10 00:14:38;;;;;;;3.13;2.70;;;14.60;99.90;;;;;;5106684;28;20162;-83
2021/05/10 00:17:03;;;;;;;3.70;2.43;;;14.70;99.90;;;;;;5108560;28;20235;-83
2021/05/10 00:19:29;;;;;;;6.87;2.83;;;14.70;99.90;;;;;;5124499;28;20404;-83
2021/05/10 00:21:55;;;;;;;3.23;2.93;;;14.60;99.90;;;;;;5106147;28;20170;-83
2021/05/10 00:24:21;;;;;;;4.60;3.07;;;14.70;99.90;;;;;;5105326;28;20154;-83
2021/05/10 00:26:47;;;;;;;3.00;2.80;;;14.80;99.90;;;;;;5123919;28;20251;-83
2021/05/10 00:29:17;;;;;;;2.73;2.53;;;14.80;99.90;;;;;;5123833;28;20162;-83
2021/05/10 00:31:43;;;;;;;3.17;2.80;;;14.50;99.90;;;;;;5124103;28;20165;-83
2021/05/10 00:34:09;;;;;;;7.97;2.67;;;14.70;99.90;;;;;;5123612;28;20392;-83
2021/05/10 00:36:35;;;;;;;2.90;2.70;;;14.90;99.90;;;;;;5124256;28;20396;-83
2021/05/10 00:39:01;;;;;;;4.20;3.30;;;14.90;99.90;;;;;;5123671;28;20177;-83
2021/05/10 00:41:26;;;;;;;3.77;3.27;;;14.60;99.90;;;;;;5123407;28;20172;-83
2021/05/10 00:43:52;;;;;;;2.90;2.70;;;14.40;99.90;;;;;;5126845;27;20251;-84
2021/05/10 00:46:18;;;;;;;3.73;3.20;;;14.30;99.90;;;;;;5143765;27;20165;-84
2021/05/10 00:48:45;;;;;;;4.80;2.87;;;14.40;99.90;;;;;;5144377;27;20162;-83
2021/05/10 00:51:11;;;;;;;3.60;3.30;;;14.40;99.90;;;;;;5143822;27;20193;-83
2021/05/10 00:53:36;;;;;;;5.63;2.60;;;14.40;99.90;;;;;;5144029;27;20391;-84
2021/05/10 00:56:02;;;;;;;3.90;3.00;;;14.40;99.90;;;;;;5143712;27;20158;-83
2021/05/10 00:58:28;;;;;;;3.93;3.53;;;14.40;99.90;;;;;;5143856;27;20257;-83
2021/05/10 01:00:54;;;;;;;2.93;2.70;;;14.30;99.90;;;;;;5143200;27;20419;-83
2021/05/10 01:03:20;;;;;;;5.73;3.40;;;14.30;99.90;;;;;;5144010;27;20613;-83
2021/05/10 01:05:46;;;;;;;4.50;4.20;;;14.40;99.90;;;;;;5143633;27;20213;-83
2021/05/10 01:08:12;;;;;;;3.00;2.70;;;14.40;99.90;;;;;;5125037;27;20481;-83
2021/05/10 01:10:37;;;;;;;6.40;2.90;;;14.40;99.90;;;;;;5143001;27;20387;-83
2021/05/10 01:13:04;;;;;;;3.43;3.10;;;14.40;99.90;;;;;;5143708;27;20298;-83
2021/05/10 01:15:30;;;;;;;3.23;3.03;;;14.40;99.90;;;;;;5143361;27;20158;-83
2021/05/10 01:17:58;;;;;;;2.73;2.53;;;14.60;99.90;;;;;;5108616;27;20395;-83
2021/05/10 01:20:24;;;;;;;3.33;3.00;;;14.60;99.90;;;;;;5142627;27;20801;-83
2021/05/10 01:22:53;;;;;;;4.30;2.90;;;14.60;99.90;;;;;;5143019;27;20410;-83
2021/05/10 01:25:23;;;;;;;6.40;3.40;;;14.60;99.90;;;;;;5143058;27;20395;-83
2021/05/10 01:27:50;;;;;;;4.03;3.60;;;14.70;99.90;;;;;;5143206;27;20453;-83
2021/05/10 01:30:24;;;;;;;11.07;3.80;;;14.50;99.90;;;;;;5143032;27;20398;-83
2021/05/10 01:32:51;;;;;;;4.07;3.70;;;14.60;99.90;;;;;;5143383;27;20814;-83
2021/05/10 01:35:20;;;;;;;3.27;3.00;;;14.60;99.90;;;;;;5152997;27;20391;-82
2021/05/10 01:37:46;;;;;;;4.37;3.47;;;14.70;99.90;;;;;;5152656;27;20391;-83
2021/05/10 01:40:12;;;;;;;3.30;3.00;;;14.70;99.90;;;;;;5143175;27;20439;-83
2021/05/10 01:42:38;;;;;;;3.77;3.10;;;14.60;99.90;;;;;;5125089;27;20153;-84
2021/05/10 01:45:06;;;;;;;5.43;4.03;;;14.70;99.90;;;;;;5142363;27;20583;-83
2021/05/10 01:47:32;;;;;;;5.10;4.70;;;14.70;99.90;;;;;;5142873;27;20197;-83
2021/05/10 01:49:58;;;;;;;5.90;4.10;;;14.70;99.90;;;;;;5143118;27;20867;-83
2021/05/10 01:52:25;;;;;;;6.70;3.77;;;14.60;99.90;;;;;;5142717;27;20417;-84
2021/05/10 01:54:52;;;;;;;5.33;4.53;;;14.50;99.90;;;;;;5142295;27;20387;-83
2021/05/10 01:57:19;;;;;;;4.17;3.77;;;14.50;99.90;;;;;;5142919;27;20399;-83
2021/05/10 01:59:45;;;;;;;6.87;4.50;;;14.50;99.90;;;;;;5142520;27;20416;-83
2021/05/10 02:02:11;;;;;;;8.30;4.00;;;14.50;99.90;;;;;;5142234;27;20501;-83
2021/05/10 02:05:06;;;;;;;5.50;3.93;;;14.50;99.90;;;;;;5142200;27;20395;-83
2021/05/10 02:07:33;;;;;;;3.77;3.17;;;14.50;99.90;;;;;;5142134;27;20450;-84
2021/05/10 02:10:00;;;;;;;5.60;4.33;;;14.50;99.90;;;;;;5142507;27;20383;-84
2021/05/10 02:12:26;;;;;;;5.10;4.60;;;14.40;99.90;;;;;;5141390;27;20415;-83
2021/05/10 02:14:52;;;;;;;3.90;3.50;;;14.40;99.90;;;;;;5123932;27;20867;-84
2021/05/10 02:17:18;;;;;;;8.13;6.03;;;14.30;99.90;;;;;;5124010;27;20198;-83
2021/05/10 02:19:45;;;;;;;8.00;4.80;;;14.20;99.90;;;;;;5141982;27;20168;-83
2021/05/10 02:22:11;;;;;;;4.07;3.53;;;14.20;99.90;;;;;;5141761;27;20157;-83
2021/05/10 02:24:37;;;;;;;6.83;4.20;;;14.10;99.90;;;;;;5125251;27;20387;-83
2021/05/10 02:27:04;;;;;;;6.63;4.40;;;13.90;99.90;;;;;;5143124;27;20435;-83
2021/05/10 02:29:30;;;;;;;7.40;3.70;;;13.90;99.90;;;;;;5124615;27;20395;-83
2021/05/10 02:31:56;;;;;;;3.73;3.53;;;13.90;99.90;;;;;;5125796;27;20483;-84
2021/05/10 02:34:22;;;;;;;6.20;4.17;;;13.90;99.90;;;;;;5144388;27;20434;-83
2021/05/10 02:36:49;;;;;;;4.43;4.03;;;14.00;99.90;;;;;;5144638;27;20574;-83
2021/05/10 02:39:16;;;;;;;4.83;4.37;;;13.90;99.90;;;;;;5144279;27;20387;-83
2021/05/10 02:41:42;;;;;;;6.87;4.17;;;13.90;99.90;;;;;;5144561;27;20407;-83
2021/05/10 02:44:08;;;;;;;5.50;4.43;;;14.00;99.90;;;;;;5144230;27;20449;-83
2021/05/10 02:46:34;;;;;;;3.97;3.57;;;14.00;99.90;;;;;;5144683;27;20244;-83
2021/05/10 02:49:00;;;;;;;3.63;3.33;;;14.10;99.90;;;;;;5125902;27;20458;-83
2021/05/10 02:51:25;;;;;;;4.20;3.80;;;14.10;99.90;;;;;;5144102;27;20158;-83
2021/05/10 02:53:51;;;;;;;5.07;4.03;;;14.10;99.90;;;;;;5144572;27;20569;-83
2021/05/10 02:56:17;;;;;;;5.37;5.07;;;13.90;99.90;;;;;;5153663;27;20164;-83
2021/05/10 02:58:43;;;;;;;6.80;4.50;;;13.70;99.90;;;;;;5159979;27;20164;-83
2021/05/10 03:01:09;;;;;;;3.03;2.83;;;13.60;99.90;;;;;;5160144;27;20193;-83
2021/05/10 03:03:35;;;;;;;5.70;3.47;;;13.50;99.90;;;;;;5159949;27;20452;-83
2021/05/10 03:06:00;;;;;;;7.93;2.63;;;13.40;99.90;;;;;;5141944;27;20185;-84
2021/05/10 03:08:26;;;;;;;3.17;2.87;;;13.30;99.90;;;;;;5158413;27;20208;-83
2021/05/10 03:10:53;;;;;;;4.93;3.30;;;13.30;99.90;;;;;;5142141;27;20181;-83
2021/05/10 03:13:19;;;;;;;5.83;3.00;;;13.20;99.90;;;;;;5159869;27;20158;-83
2021/05/10 03:15:44;;;;;;;3.63;3.43;;;13.30;99.90;;;;;;5159567;27;20406;-83
2021/05/10 03:18:10;;;;;;;3.57;3.27;;;13.40;99.90;;;;;;5157235;27;20165;-83
2021/05/10 03:20:36;;;;;;;6.20;3.43;;;13.40;99.90;;;;;;5124524;27;20158;-83
2021/05/10 03:23:02;;;;;;;6.60;4.23;;;13.20;99.90;;;;;;5142218;27;20158;-85
2021/05/10 03:25:29;;;;;;;10.73;4.27;;;13.20;99.90;;;;;;5142546;27;20225;-84
2021/05/10 03:27:55;;;;;;;3.63;3.33;;;13.20;99.90;;;;;;5142396;27;20790;-83
2021/05/10 03:30:23;;;;;;;4.10;3.47;;;13.00;99.90;;;;;;5141438;28;20387;-83
2021/05/10 03:32:50;;;;;;;3.57;3.27;;;13.00;99.90;;;;;;5141450;28;20484;-83
2021/05/10 03:35:17;;;;;;;3.47;3.20;;;13.00;99.90;;;;;;5141941;28;20448;-83
2021/05/10 03:37:44;;;;;;;4.40;3.43;;;12.80;99.90;;;;;;5141604;28;20395;-83
2021/05/10 03:40:13;;;;;;;4.27;3.47;;;12.90;99.90;;;;;;5141837;28;20396;-83
2021/05/10 03:42:40;;;;;;;3.93;3.63;;;12.80;99.90;;;;;;5122540;28;20395;-83
2021/05/10 03:45:08;;;;;;;6.40;3.63;;;12.80;99.90;;;;;;5139873;28;20450;-83
2021/05/10 03:47:41;;;;;;;5.00;4.60;;;12.80;99.90;;;;;;5141140;28;20450;-83
2021/05/10 03:50:19;;;;;;;9.93;4.13;;;12.60;99.90;;;;;;5140845;28;20422;-83
2021/05/10 03:52:47;;;;;;;4.63;3.77;;;12.50;99.90;;;;;;5140885;28;20391;-83
2021/05/10 03:55:15;;;;;;;6.03;3.93;;;12.60;99.90;;;;;;5140326;28;20520;-84
2021/05/10 03:57:41;;;;;;;4.00;3.43;;;12.50;99.90;;;;;;5141091;28;20431;-83
2021/05/10 04:00:09;;;;;;;5.70;3.07;;;12.30;99.90;;;;;;5141449;28;20435;-83
2021/05/10 04:02:36;;;;;;;4.47;4.07;;;12.30;99.90;;;;;;5122739;28;20402;-83
2021/05/10 04:05:19;;;;;;;3.70;3.43;;;12.30;99.90;;;;;;5140689;28;20399;-83
2021/05/10 04:07:52;;;;;;;11.63;3.90;;;12.40;99.90;;;;;;5103604;28;20558;-83
2021/05/10 04:10:36;;;;;;;4.33;3.63;;;12.40;99.90;;;;;;5117988;28;20410;-83
2021/05/10 04:15:40;;;;;;;5.53;3.43;;;12.30;99.90;;;;;;5118141;28;20537;-83
2021/05/10 04:18:05;;;;;;;6.57;4.13;;;12.50;99.90;;;;;;5118032;28;20823;-84
2021/05/10 04:20:31;;;;;;;4.40;4.00;;;12.50;99.90;;;;;;5098547;28;20178;-83
2021/05/10 04:22:57;;;;;;;4.90;4.20;;;12.60;99.90;;;;;;5101285;28;20280;-83
2021/05/10 04:25:23;;;;;;;9.40;3.60;;;12.70;99.90;;;;;;5120168;28;20166;-83
2021/05/10 04:27:49;;;;;;;5.83;3.63;;;12.70;99.90;;;;;;5119901;28;20215;-83
2021/05/10 04:30:15;;;;;;;3.90;3.60;;;12.60;99.90;;;;;;5120358;28;20158;-83
2021/05/10 04:32:41;;;;;;;5.00;3.90;;;12.60;99.90;;;;;;5120520;28;20198;-83
2021/05/10 04:35:08;;;;;;;8.33;4.20;;;12.70;99.90;;;;;;5103182;28;20404;-83
2021/05/10 04:37:34;;;;;;;5.10;4.57;;;12.60;99.90;;;;;;5124714;27;20158;-83
2021/05/10 04:40:00;;;;;;;6.93;3.90;;;12.70;99.90;;;;;;5146519;27;20426;-83
2021/05/10 04:42:26;;;;;;;4.47;4.13;;;12.70;99.90;;;;;;5148512;27;20395;-83
2021/05/10 04:44:52;;;;;;;4.67;3.63;;;13.00;99.90;;;;;;5157047;27;20446;-83
2021/05/10 04:47:18;;;;;;;6.43;4.80;;;13.30;99.90;;;;;;5157905;27;20257;-83
2021/05/10 04:49:44;;;;;;;7.73;4.80;;;13.40;99.90;;;;;;5156501;27;20185;-83
2021/05/10 04:52:10;;;;;;;5.93;4.87;;;13.60;99.90;;;;;;5146790;27;20560;-83
2021/05/10 04:54:38;;;;;;;4.73;3.80;;;13.50;99.90;;;;;;5130569;27;20165;-82
2021/05/10 04:57:04;;;;;;;8.63;4.10;;;13.50;99.90;;;;;;5153529;27;20871;-83
2021/05/10 04:59:30;;;;;;;3.90;3.60;;;13.70;99.90;;;;;;5147616;27;20704;-83
2021/05/10 05:01:56;;;;;;;4.87;3.60;;;13.70;99.90;;;;;;5146009;27;20491;-83
2021/05/10 05:04:22;;;;;;;3.87;3.57;;;13.80;99.90;;;;;;5145797;27;20158;-83
2021/05/10 05:06:47;;;;;;;4.67;3.83;;;13.90;99.90;;;;;;5145936;27;20193;-83
2021/05/10 05:09:16;;;;;;;6.30;4.50;;;13.80;99.90;;;;;;5145213;27;20197;-83
2021/05/10 05:11:42;;;;;;;5.67;5.10;;;13.90;99.90;;;;;;5146120;27;20153;-83
2021/05/10 05:14:08;;;;;;;3.93;3.63;;;13.90;99.90;;;;;;5110183;27;20443;-83
2021/05/10 05:16:34;;;;;;;6.40;3.30;;;13.90;99.90;;;;;;5127888;27;20165;-83
2021/05/10 05:18:59;;;;;;;4.37;3.27;;;14.10;99.90;;;;;;5145959;27;20176;-83
2021/05/10 05:21:25;;;;;;;7.20;4.43;;;14.30;99.90;;;;;;5145315;27;20158;-83
2021/05/10 05:23:51;;;;;;;7.10;3.53;;;14.40;99.90;;;;;;5145525;27;20263;-83
2021/05/10 05:26:17;;;;;;;10.53;3.73;;;14.50;99.90;;;;;;5145117;27;20570;-83
2021/05/10 05:28:43;;;;;;;5.47;3.87;;;14.60;99.90;;;;;;5144974;27;20157;-83
2021/05/10 05:31:09;;;;;;;7.50;3.30;;;14.70;99.90;;;;;;5144593;27;20247;-83
2021/05/10 05:33:35;;;;;;;7.50;3.47;;;14.90;99.90;;;;;;5126983;27;20441;-83
2021/05/10 05:36:01;;;;;;;5.00;3.50;;;15.10;99.90;;;;;;5144282;27;20444;-81
2021/05/10 05:38:30;;;;;;;8.20;3.20;;;15.20;99.90;;;;;;5142115;27;20879;-83
2021/05/10 05:40:56;;;;;;;9.90;3.90;;;15.40;99.90;;;;;;5143103;27;20539;-82
2021/05/10 05:43:22;;;;;;;3.00;2.80;;;15.60;99.90;;;;;;5144461;27;20477;-82
2021/05/10 05:45:47;;;;;;;7.73;4.10;;;15.70;99.90;;;;;;5143392;27;20704;-82
2021/05/10 05:48:14;;;;;;;6.90;4.07;;;15.80;99.90;;;;;;5142104;27;20196;-82
2021/05/10 05:50:40;;;;;;;5.57;3.00;;;16.00;99.90;;;;;;5125765;27;20153;-82
2021/05/10 05:53:06;;;;;;;11.27;3.60;;;16.10;99.90;;;;;;5143499;27;20383;-83
2021/05/10 05:55:32;;;;;;;5.37;2.73;;;16.30;99.90;;;;;;5130729;27;20755;-83
2021/05/10 05:57:58;;;;;;;3.53;3.33;;;16.40;99.90;;;;;;5143010;27;20161;-83
2021/05/10 06:00:25;;;;;;;8.40;3.17;;;16.60;99.90;;;;;;5130929;27;20418;-83
2021/05/10 06:02:51;;;;;;;3.93;3.30;;;16.70;99.90;;;;;;5159881;27;20434;-83
2021/05/10 06:05:17;;;;;;;2.47;2.00;;;17.00;99.90;;;;;;5146453;27;20535;-82
2021/05/10 06:07:45;;;;;;;3.97;3.60;;;17.30;99.90;;;;;;5147933;27;20200;-83
2021/05/10 06:10:14;;;;;;;5.80;3.87;;;17.50;99.90;;;;;;5157593;27;20411;-83
2021/05/10 06:12:44;;;;;;;5.57;3.07;;;17.60;99.90;;;;;;5142648;27;20419;-83
2021/05/10 06:15:11;;;;;;;4.17;2.90;;;17.70;99.90;;;;;;5153190;27;20577;-83
2021/05/10 06:17:37;;;;;;;9.93;3.70;;;17.80;99.90;;;;;;5149496;27;20441;-83
2021/05/10 06:20:05;;;;;;;5.80;3.50;;;17.80;99.90;;;;;;5152540;27;20769;-83
2021/05/10 06:22:31;;;;;;;2.50;2.20;;;17.90;99.90;;;;;;5161864;27;20477;-81
2021/05/10 06:24:57;;;;;;;2.73;2.50;;;18.00;99.90;;;;;;5158529;27;20907;-81
2021/05/10 06:27:23;;;;;;;4.90;3.10;;;17.90;99.90;;;;;;5123263;27;20201;-81
2021/05/10 06:29:49;;;;;;;3.70;2.60;;;17.90;99.90;;;;;;5121922;28;20408;-82
2021/05/10 06:32:14;;;;;;;6.60;2.20;;;18.00;99.90;;;;;;5145883;27;20180;-81
2021/05/10 06:34:40;;;;;;;7.63;2.73;;;18.00;99.90;;;;;;5142165;27;20181;-82
2021/05/10 06:37:06;;;;;;;5.50;3.60;;;18.00;99.90;;;;;;5138099;27;20185;-81
2021/05/10 06:39:32;;;;;;;6.90;3.27;;;18.10;99.90;;;;;;5127143;27;20231;-81
2021/05/10 06:41:57;;;;;;;3.40;2.53;;;18.20;99.90;;;;;;5140418;27;20195;-81
2021/05/10 06:44:23;;;;;;;2.60;2.17;;;18.20;99.90;;;;;;5137888;27;20224;-81
2021/05/10 06:46:49;;;;;;;1.97;1.87;;;18.50;99.90;;;;;;5122668;27;20216;-81
2021/05/10 06:49:15;;;;;;;2.53;2.33;;;18.80;99.90;;;;;;5126129;27;20280;-80
2021/05/10 06:51:40;;;;;;;2.80;2.13;;;18.90;99.90;;;;;;5133535;27;20196;-82
2021/05/10 06:54:06;;;;;;;2.53;2.33;;;19.00;99.90;;;;;;5132664;27;20175;-80
2021/05/10 06:56:32;;;;;;;4.27;3.10;;;19.10;99.90;;;;;;5135708;27;20183;-81
2021/05/10 06:58:58;;;;;;;2.70;2.20;;;19.10;99.90;;;;;;5121763;27;20594;-81
2021/05/10 07:01:24;;;;;;;5.27;2.60;;;19.20;99.90;;;;;;5140587;27;20218;-81
2021/05/10 07:03:50;;;;;;;3.53;2.27;;;19.20;99.90;;;;;;5142164;27;20261;-82
2021/05/10 07:06:16;;;;;;;2.13;2.03;;;19.20;99.90;;;;;;5123158;27;20486;-81
2021/05/10 07:08:44;;;;;;;2.67;2.47;;;19.30;99.90;;;;;;5122307;27;20213;-82
2021/05/10 07:11:10;;;;;;;4.30;2.70;;;19.30;99.90;;;;;;5122820;28;20177;-82
2021/05/10 07:13:36;;;;;;;2.73;2.30;;;19.30;99.90;;;;;;5140874;27;20413;-81
2021/05/10 07:16:02;;;;;;;2.50;2.23;;;19.40;99.90;;;;;;5141845;27;20544;-82
2021/05/10 07:18:27;;;;;;;2.50;2.30;;;19.50;99.90;;;;;;5141727;27;20197;-82
2021/05/10 07:20:53;;;;;;;1.97;1.87;;;19.40;99.90;;;;;;5143215;27;20514;-82
2021/05/10 07:23:20;;;;;;;2.60;2.40;;;19.40;99.90;;;;;;5135212;27;20176;-82
2021/05/10 07:25:48;;;;;;;3.57;2.90;;;19.40;99.90;;;;;;5140334;27;20419;-83
2021/05/10 07:28:16;;;;;;;3.10;2.80;;;19.60;99.90;;;;;;5162941;27;20442;-83
2021/05/10 07:30:43;;;;;;;2.57;2.07;;;19.70;99.90;;;;;;5144447;27;20415;-83
2021/05/10 07:33:08;;;;;;;5.23;2.33;;;19.90;99.90;;;;;;5125270;28;20403;-82
2021/05/10 07:35:34;;;;;;;3.63;2.73;;;20.00;99.90;;;;;;5143434;27;20423;-83
2021/05/10 07:38:01;;;;;;;6.27;3.00;;;20.20;99.90;;;;;;5126586;28;20237;-84
2021/05/10 07:40:29;;;;;;;4.07;3.00;;;20.20;99.90;;;;;;5104028;27;20773;-83
2021/05/10 07:42:55;;;;;;;3.03;2.73;;;20.40;99.90;;;;;;5106057;28;20426;-83
2021/05/10 07:45:22;;;;;;;3.63;2.53;;;20.40;99.90;;;;;;5122714;28;20447;-82
2021/05/10 07:47:54;;;;;;;3.80;2.47;;;20.60;99.90;;;;;;5131208;28;20470;-82
2021/05/10 07:50:22;;;;;;;6.67;2.17;;;20.60;99.90;;;;;;5129150;28;20475;-82
2021/05/10 07:52:48;;;;;;;2.93;2.53;;;20.50;99.90;;;;;;5145182;28;20420;-82
2021/05/10 07:55:14;;;;;;;3.57;2.70;;;20.50;99.90;;;;;;5101935;28;20758;-81
2021/05/10 07:57:40;;;;;;;4.90;2.63;;;20.50;99.90;;;;;;5150047;28;20427;-82
2021/05/10 08:00:12;;;;;;;3.10;2.63;;;20.50;99.90;;;;;;5150814;28;20399;-81
2021/05/10 08:02:43;;;;;;;6.23;2.33;;;20.70;99.90;;;;;;5115150;28;20482;-81
2021/05/10 08:05:10;;;;;;;5.43;2.47;;;20.80;99.90;;;;;;5132287;28;20414;-81
2021/05/10 08:07:42;;;;;;;3.20;3.00;;;20.80;99.90;;;;;;5127578;28;20532;-81
2021/05/10 08:10:08;;;;;;;4.00;2.27;;;20.90;99.90;;;;;;5110662;28;20389;-80
2021/05/10 08:12:34;;;;;;;2.43;2.23;;;21.00;99.90;;;;;;5134149;27;20484;-81
2021/05/10 08:15:01;;;;;;;3.90;2.77;;;21.20;99.90;;;;;;5100572;28;20805;-80
2021/05/10 08:17:28;;;;;;;3.60;2.17;;;21.40;99.90;;;;;;5117321;28;20429;-78
2021/05/10 08:19:54;;;;;;;4.93;2.70;;;21.40;99.90;;;;;;5153685;27;20431;-81
2021/05/10 08:22:19;;;;;;;2.60;2.40;;;21.40;99.90;;;;;;5159907;27;20404;-80
2021/05/10 08:24:45;;;;;;;3.47;2.20;;;21.40;99.90;;;;;;5162331;27;20161;-81
2021/05/10 08:27:11;;;;;;;2.43;2.23;;;21.60;99.90;;;;;;5164211;27;20196;-83
2021/05/10 08:29:37;;;;;;;2.57;2.37;;;21.90;99.90;;;;;;5114114;27;20181;-84
2021/05/10 08:32:03;;;;;;;2.30;2.10;;;21.80;99.90;;;;;;5149423;27;20189;-83
2021/05/10 08:34:29;;;;;;;3.03;1.97;;;21.80;99.90;;;;;;5117420;28;20162;-85
2021/05/10 08:36:55;;;;;;;2.90;2.70;;;22.00;99.90;;;;;;5152916;27;20411;-83
2021/05/10 08:39:22;;;;;;;2.50;2.27;;;21.80;99.90;;;;;;5163944;27;20205;-83
2021/05/10 08:41:51;;;;;;;3.20;2.30;;;21.90;99.90;;;;;;5121420;27;20772;-86
2021/05/10 08:44:21;;;;;;;2.63;1.93;;;22.00;99.90;;;;;;5116575;28;20504;-86
2021/05/10 08:46:47;;;;;;;4.27;2.77;;;22.10;99.90;;;;;;5074201;28;20472;-83
2021/05/10 08:49:19;;;;;;;2.00;1.90;;;22.30;99.90;;;;;;5058277;28;20414;-84
2021/05/10 08:51:45;;;;;;;2.40;2.20;;;22.20;99.90;;;;;;5066649;28;20181;-84
2021/05/10 08:54:21;;;;;;;5.70;3.00;;;22.50;99.90;;;;;;5063660;28;20448;-83
2021/05/10 08:56:54;;;;;;;2.40;2.20;;;22.50;99.90;;;;;;5031574;28;20477;-84
2021/05/10 08:59:21;;;;;;;2.57;2.40;;;22.50;99.90;;;;;;5060281;28;20427;-84
2021/05/10 09:01:58;;;;;;;4.53;2.20;;;22.60;99.90;;;;;;5060952;28;20418;-85
2021/05/10 09:04:36;;;;;;;2.53;2.17;;;22.60;99.90;;;;;;5064532;28;20441;-84
2021/05/10 09:07:17;;;;;;;6.60;2.50;;;22.70;98.30;;;;;;5044555;28;20478;-84
2021/05/10 09:09:59;;;;;;;3.30;1.90;;;22.70;97.60;;;;;;5061120;28;20406;-85
2021/05/10 09:12:43;;;;;;;6.20;2.27;;;22.90;98.10;;;;;;5061668;28;20470;-85
2021/05/10 09:15:27;;;;;;;3.20;2.57;;;22.90;99.20;;;;;;5054735;28;20406;-85
2021/05/10 09:17:56;;;;;;;4.53;2.40;;;23.10;98.40;;;;;;5044674;28;20425;-85
2021/05/10 09:20:34;;;;;;;4.07;2.40;;;23.20;97.60;;;;;;5063196;28;20430;-85
2021/05/10 09:23:02;;;;;;;5.53;2.20;;;23.20;97.90;;;;;;5055199;28;20489;-85
2021/05/10 09:25:32;;;;;;;2.40;1.80;;;23.10;97.10;;;;;;5064639;28;20470;-85
2021/05/10 09:28:22;;;;;;;2.50;2.10;;;22.90;96.60;;;;;;5066880;28;20485;-85
2021/05/10 09:30:54;;;;;;;2.00;1.80;;;22.70;97.30;;;;;;5061057;28;20422;-85
2021/05/10 09:33:26;;;;;;;4.43;2.70;;;22.90;97.40;;;;;;5049132;28;20934;-84
2021/05/10 09:35:55;;;;;;;2.83;2.50;;;23.00;97.10;;;;;;5083410;28;20418;-85
2021/05/10 09:38:23;;;;;;;5.00;2.73;;;23.20;97.70;;;;;;5064358;28;20516;-84
2021/05/10 09:40:53;;;;;;;3.77;2.60;;;23.40;97.60;;;;;;5082309;28;20410;-84
2021/05/10 09:43:23;;;;;;;2.40;2.20;;;23.40;97.30;;;;;;5082339;28;20501;-83
2021/05/10 09:45:55;;;;;;;5.37;2.80;;;23.40;96.80;;;;;;5080390;28;20443;-83
2021/05/10 09:48:26;;;;;;;2.73;2.53;;;23.50;97.20;;;;;;5021369;28;20470;-83
2021/05/10 09:51:02;;;;;;;2.50;2.30;;;23.50;97.20;;;;;;5072199;28;20464;-82
2021/05/10 09:53:36;;;;;;;4.13;2.43;;;23.80;96.90;;;;;;5040550;28;20429;-83
2021/05/10 09:56:04;;;;;;;2.47;2.27;;;23.70;96.90;;;;;;5066644;28;20433;-83
2021/05/10 09:58:40;;;;;;;4.83;2.80;;;23.80;97.10;;;;;;5059660;28;20402;-83
2021/05/10 10:01:06;;;;;;;3.27;2.50;;;23.80;96.20;;;;;;5053427;28;20903;-83
2021/05/10 10:03:40;;;;;;;3.07;2.50;;;24.00;97.30;;;;;;5049612;28;20403;-83
2021/05/10 10:06:08;;;;;;;2.50;2.33;;;24.10;96.80;;;;;;5050955;28;20454;-82
2021/05/10 10:08:35;;;;;;;8.70;4.33;;;24.20;96.50;;;;;;5056333;28;20457;-84
2021/05/10 10:11:04;;;;;;;2.53;2.33;;;24.20;96.20;;;;;;5073471;28;20415;-84
2021/05/10 10:13:32;;;;;;;9.00;2.60;;;24.30;95.70;;;;;;5037421;28;20443;-85
2021/05/10 10:16:00;;;;;;;2.33;2.20;;;24.40;95.50;;;;;;5060568;28;20441;-84
2021/05/10 10:18:26;;;;;;;2.67;2.47;;;24.30;95.00;;;;;;5091830;27;20426;-84
2021/05/10 10:20:54;;;;;;;6.13;2.50;;;24.40;95.50;;;;;;5125519;27;20411;-83
2021/05/10 10:23:25;;;;;;;3.20;2.90;;;24.60;95.40;;;;;;5149030;27;20932;-86
2021/05/10 10:25:53;;;;;;;2.30;2.10;;;24.70;94.10;;;;;;5132771;27;20398;-86
2021/05/10 10:28:26;;;;;;;4.30;2.73;;;24.70;93.80;;;;;;5151175;27;20446;-83
2021/05/10 10:31:03;;;;;;;2.40;2.20;;;24.90;92.90;;;;;;5062118;28;20433;-83
2021/05/10 10:33:53;;;;;;;4.40;2.70;;;24.90;92.50;;;;;;5064491;28;20437;-83
2021/05/10 10:36:25;;;;;;;6.40;2.37;;;24.90;92.60;;;;;;5065161;28;20425;-86
2021/05/10 10:39:11;;;;;;;2.80;2.60;;;25.00;92.70;;;;;;5063642;28;20397;-85
2021/05/10 10:41:55;;;;;;;6.30;2.30;;;25.00;92.40;;;;;;5064374;28;20397;-85
2021/05/10 10:44:41;;;;;;;2.40;2.20;;;25.10;91.90;;;;;;5081847;28;20457;-85
2021/05/10 10:47:10;;;;;;;2.50;2.30;;;25.10;90.30;;;;;;5081856;28;20499;-85
2021/05/10 10:49:42;;;;;;;5.00;2.33;;;25.30;90.50;;;;;;5080945;28;20417;-85
2021/05/10 10:52:18;;;;;;;3.93;2.70;;;25.30;90.40;;;;;;5047871;28;20432;-86
2021/05/10 10:54:45;;;;;;;2.00;1.90;;;25.30;89.90;;;;;;5048500;28;20390;-85
2021/05/10 10:57:30;;;;;;;3.50;3.00;;;25.50;89.80;;;;;;5061332;28;20436;-83
2021/05/10 10:59:56;;;;;;;2.70;2.50;;;25.80;90.40;;;;;;5010516;28;20989;-84
2021/05/10 11:02:27;;;;;;;2.07;1.90;;;25.80;90.00;;;;;;5095945;27;20455;-83
2021/05/10 11:05:11;;;;;;;8.33;2.90;;;25.80;90.00;;;;;;5138401;27;20531;-84
2021/05/10 11:08:04;;;;;;;2.50;2.27;;;26.10;90.30;;;;;;5143107;27;20465;-86
2021/05/10 11:10:51;;;;;;;1.97;1.87;;;26.10;88.00;;;;;;5142512;27;20527;-84
2021/05/10 11:13:33;;;;;;;3.63;2.03;;;26.40;88.00;;;;;;5140492;27;20399;-86
2021/05/10 11:16:02;;;;;;;4.00;2.20;;;26.20;87.20;;;;;;5140890;27;20397;-85
2021/05/10 11:18:37;;;;;;;2.40;2.20;;;26.10;86.80;;;;;;5139799;27;20391;-84
2021/05/10 11:21:08;;;;;;;2.70;2.50;;;26.10;88.30;;;;;;5123596;28;20514;-85
2021/05/10 11:23:36;;;;;;;2.23;2.00;;;26.00;89.40;;;;;;5123930;27;20395;-84
2021/05/10 11:26:05;;;;;;;2.80;2.60;;;26.40;88.00;;;;;;5124949;27;20432;-83
2021/05/10 11:28:40;;;;;;;2.30;2.10;;;26.50;88.90;;;;;;5104725;28;20514;-83
2021/05/10 11:31:15;;;;;;;3.67;2.50;;;26.80;90.70;;;;;;5119032;27;20457;-83
2021/05/10 11:34:13;;;;;;;3.70;2.90;;;27.00;90.10;;;;;;5141340;27;20715;-85
2021/05/10 11:36:59;;;;;;;3.90;2.30;;;27.20;89.80;;;;;;5105952;28;20401;-83
2021/05/10 11:39:46;;;;;;;2.17;2.07;;;27.70;87.20;;;;;;5101799;28;20822;-84
2021/05/10 11:42:12;;;;;;;2.37;2.23;;;28.00;87.00;;;;;;5077757;28;20458;-83
2021/05/10 11:44:40;;;;;;;2.20;2.00;;;28.20;86.40;;;;;;5079362;28;20702;-83
2021/05/10 11:47:07;;;;;;;3.23;3.03;;;28.60;85.90;;;;;;5065537;28;20515;-83
2021/05/10 11:49:35;;;;;;;2.50;2.30;;;28.80;86.20;;;;;;5081990;28;20776;-83
2021/05/10 11:52:07;;;;;;;4.17;2.50;;;28.90;85.00;;;;;;5026530;28;20457;-83
2021/05/10 11:54:33;;;;;;;4.40;2.83;;;29.10;84.90;;;;;;5061759;28;20405;-84
2021/05/10 11:57:02;;;;;;;4.73;2.83;;;29.10;85.20;;;;;;5062005;28;20421;-83
2021/05/10 11:59:51;;;;;;;3.30;2.70;;;29.50;82.00;;;;;;5031094;28;20193;-84
2021/05/10 12:02:39;;;;;;;3.03;2.63;;;29.60;80.90;;;;;;5042189;28;20681;-84
2021/05/10 12:05:07;;;;;;;2.50;2.30;;;29.70;79.70;;;;;;4993083;28;20193;-83
2021/05/10 12:07:35;;;;;;;3.78;2.63;;;30.10;79.60;;;;;;4989104;28;20217;-84
2021/05/10 12:10:10;;;;;;;2.40;2.30;;;29.80;80.00;;;;;;4999126;28;20185;-84
2021/05/10 12:12:41;;;;;;;2.58;2.38;;;30.20;79.30;;;;;;5003606;28;20709;-84
2021/05/10 12:15:24;;;;;;;2.08;1.98;;;30.10;76.50;;;;;;5028828;28;20188;-84
2021/05/10 12:17:53;;;;;;;2.80;2.60;;;30.00;77.90;;;;;;5034448;28;20208;-84
2021/05/10 12:20:23;;;;;;;4.72;2.78;;;30.00;78.90;;;;;;5039191;28;20223;-84
2021/05/10 12:22:56;;;;;;;3.03;2.47;;;30.20;78.10;;;;;;4982108;28;20275;-84
2021/05/10 12:25:26;;;;;;;2.50;2.30;;;30.20;76.60;;;;;;5000341;28;20197;-84
2021/05/10 12:28:09;;;;;;;7.63;2.67;;;29.80;78.40;;;;;;5014599;28;20268;-84
2021/05/10 12:30:38;;;;;;;3.78;2.90;;;29.90;77.30;;;;;;4996289;28;20177;-84
2021/05/10 12:33:07;;;;;;;3.07;2.77;;;29.70;77.50;;;;;;5020510;28;20184;-84
2021/05/10 12:35:36;;;;;;;4.93;2.73;;;29.40;77.80;;;;;;5047223;28;20186;-83
2021/05/10 12:38:03;;;;;;;3.53;2.50;;;29.30;78.10;;;;;;5056855;28;20786;-84
2021/05/10 12:40:43;;;;;;;3.30;2.10;;;29.00;77.50;;;;;;5066501;28;20519;-84
2021/05/10 12:43:17;;;;;;;4.00;3.20;;;28.90;77.70;;;;;;5085415;28;20412;-84
2021/05/10 12:45:58;;;;;;;2.93;2.63;;;29.00;79.60;;;;;;5088022;28;20445;-84
2021/05/10 12:48:27;;;;;;;3.10;2.90;;;28.80;79.80;;;;;;5086192;28;20481;-84
2021/05/10 12:50:55;;;;;;;5.53;3.00;;;28.60;79.50;;;;;;5077351;28;20406;-84
2021/05/10 12:53:35;;;;;;;2.10;2.00;;;28.60;77.40;;;;;;5098786;28;20438;-84
2021/05/10 12:56:07;;;;;;;2.43;2.20;;;28.40;77.80;;;;;;5137826;28;20452;-85
2021/05/10 12:58:35;;;;;;;3.33;2.20;;;28.70;77.10;;;;;;5082637;28;20477;-84